sensor_id;sensor_type;location;lat;lon;timestamp;temperature;humidity
53264;DHT22;39153;52.680;6.172;2022-11-15T00:00:47;7.20;99.90
53264;DHT22;39153;52.680;6.172;2022-11-15T00:03:19;7.30;99.90
53264;DHT22;39153;52.680;6.172;2022-11-15T00:05:46;7.20;99.90
53264;DHT22;39153;52.680;6.172;2022-11-15T00:08:12;7.20;99.90
53264;DHT22;39153;52.680;6.172;2022-11-15T00:10:38;7.30;99.90
53264;DHT22;39153;52.680;6.172;2022-11-15T00:13:11;7.50;99.90
53264;DHT22;39153;52.680;6.172;2022-11-15T00:15:39;7.70;99.90
53264;DHT22;39153;52.680;6.172;2022-11-15T00:18:09;7.40;99.90
53264;DHT22;39153;52.680;6.172;2022-11-15T00:20:37;7.30;99.90
53264;DHT22;39153;52.680;6.172;2022-11-15T00:23:06;7.10;99.90
53264;DHT22;39153;52.680;6.172;2022-11-15T00:25:32;7.10;99.90
53264;DHT22;39153;52.680;6.172;2022-11-15T00:27:59;7.00;99.90
53264;DHT22;39153;52.680;6.172;2022-11-15T00:30:25;7.20;99.90
53264;DHT22;39153;52.680;6.172;2022-11-15T00:32:51;7.10;99.90
53264;DHT22;39153;52.680;6.172;2022-11-15T00:35:18;7.10;99.90
53264;DHT22;39153;52.680;6.172;2022-11-15T00:37:44;7.40;99.90
53264;DHT22;39153;52.680;6.172;2022-11-15T00:40:10;7.20;99.90
53264;DHT22;39153;52.680;6.172;2022-11-15T00:42:38;7.20;99.90
53264;DHT22;39153;52.680;6.172;2022-11-15T00:45:04;7.20;99.90
53264;DHT22;39153;52.680;6.172;2022-11-15T00:47:30;7.00;99.90
53264;DHT22;39153;52.680;6.172;2022-11-15T00:49:55;6.90;99.90
53264;DHT22;39153;52.680;6.172;2022-11-15T00:52:21;6.90;99.90
53264;DHT22;39153;52.680;6.172;2022-11-15T00:54:47;7.10;99.90
53264;DHT22;39153;52.680;6.172;2022-11-15T00:57:12;7.00;99.90
53264;DHT22;39153;52.680;6.172;2022-11-15T00:59:38;7.30;99.90
53264;DHT22;39153;52.680;6.172;2022-11-15T01:02:03;7.10;99.90
53264;DHT22;39153;52.680;6.172;2022-11-15T01:04:29;7.50;99.90
53264;DHT22;39153;52.680;6.172;2022-11-15T01:06:55;7.20;99.90
53264;DHT22;39153;52.680;6.172;2022-11-15T01:09:20;7.30;99.90
53264;DHT22;39153;52.680;6.172;2022-11-15T01:11:46;7.00;99.90
53264;DHT22;39153;52.680;6.172;2022-11-15T01:14:12;7.30;99.90
53264;DHT22;39153;52.680;6.172;2022-11-15T01:16:37;7.10;99.90
53264;DHT22;39153;52.680;6.172;2022-11-15T01:19:03;7.30;99.90
53264;DHT22;39153;52.680;6.172;2022-11-15T01:21:29;7.40;99.90
53264;DHT22;39153;52.680;6.172;2022-11-15T01:23:56;7.20;99.90
53264;DHT22;39153;52.680;6.172;2022-11-15T01:26:23;7.10;99.90
53264;DHT22;39153;52.680;6.172;2022-11-15T01:28:49;7.20;99.90
53264;DHT22;39153;52.680;6.172;2022-11-15T01:31:17;7.50;99.90
53264;DHT22;39153;52.680;6.172;2022-11-15T01:33:43;7.40;99.90
53264;DHT22;39153;52.680;6.172;2022-11-15T01:36:21;7.30;99.90
53264;DHT22;39153;52.680;6.172;2022-11-15T01:38:56;7.10;99.90
53264;DHT22;39153;52.680;6.172;2022-11-15T01:41:25;7.20;99.90
53264;DHT22;39153;52.680;6.172;2022-11-15T01:47:00;7.30;99.90
53264;DHT22;39153;52.680;6.172;2022-11-15T01:49:27;7.10;99.90
53264;DHT22;39153;52.680;6.172;2022-11-15T01:51:54;7.60;99.90
53264;DHT22;39153;52.680;6.172;2022-11-15T01:54:21;7.40;99.90
53264;DHT22;39153;52.680;6.172;2022-11-15T01:56:54;7.30;99.90
53264;DHT22;39153;52.680;6.172;2022-11-15T01:59:22;7.30;99.90
53264;DHT22;39153;52.680;6.172;2022-11-15T02:01:48;7.30;99.90
53264;DHT22;39153;52.680;6.172;2022-11-15T02:04:18;7.50;99.90
53264;DHT22;39153;52.680;6.172;2022-11-15T02:06:46;8.30;99.90
53264;DHT22;39153;52.680;6.172;2022-11-15T02:09:13;7.70;99.90
53264;DHT22;39153;52.680;6.172;2022-11-15T02:11:39;7.30;99.90
53264;DHT22;39153;52.680;6.172;2022-11-15T02:14:07;7.80;99.90
53264;DHT22;39153;52.680;6.172;2022-11-15T02:17:02;7.60;99.90
53264;DHT22;39153;52.680;6.172;2022-11-15T02:19:59;7.60;99.90
53264;DHT22;39153;52.680;6.172;2022-11-15T02:22:57;7.60;99.90
53264;DHT22;39153;52.680;6.172;2022-11-15T02:25:53;7.50;99.90
53264;DHT22;39153;52.680;6.172;2022-11-15T02:31:11;7.80;99.90
53264;DHT22;39153;52.680;6.172;2022-11-15T02:36:16;7.70;99.90
53264;DHT22;39153;52.680;6.172;2022-11-15T02:39:02;7.80;99.90
53264;DHT22;39153;52.680;6.172;2022-11-15T02:41:51;7.80;99.90
53264;DHT22;39153;52.680;6.172;2022-11-15T02:44:26;7.70;99.90
53264;DHT22;39153;52.680;6.172;2022-11-15T02:47:06;7.90;99.90
53264;DHT22;39153;52.680;6.172;2022-11-15T02:49:49;7.60;99.90
53264;DHT22;39153;52.680;6.172;2022-11-15T02:52:21;7.90;99.90
53264;DHT22;39153;52.680;6.172;2022-11-15T02:54:59;7.90;99.90
53264;DHT22;39153;52.680;6.172;2022-11-15T02:57:51;8.10;99.90
53264;DHT22;39153;52.680;6.172;2022-11-15T03:00:19;7.70;99.90
53264;DHT22;39153;52.680;6.172;2022-11-15T03:08:32;7.80;99.90
53264;DHT22;39153;52.680;6.172;2022-11-15T03:11:17;8.50;99.90
53264;DHT22;39153;52.680;6.172;2022-11-15T03:19:24;8.10;99.90
53264;DHT22;39153;52.680;6.172;2022-11-15T03:21:52;7.80;99.90
53264;DHT22;39153;52.680;6.172;2022-11-15T03:24:21;8.40;99.90
53264;DHT22;39153;52.680;6.172;2022-11-15T03:26:49;8.20;99.90
53264;DHT22;39153;52.680;6.172;2022-11-15T03:29:30;8.00;99.90
53264;DHT22;39153;52.680;6.172;2022-11-15T03:32:21;8.10;99.90
53264;DHT22;39153;52.680;6.172;2022-11-15T03:35:09;8.50;99.90
53264;DHT22;39153;52.680;6.172;2022-11-15T03:37:57;8.30;99.90
53264;DHT22;39153;52.680;6.172;2022-11-15T03:40:30;8.30;99.90
53264;DHT22;39153;52.680;6.172;2022-11-15T03:46:02;8.10;99.90
53264;DHT22;39153;52.680;6.172;2022-11-15T03:49:17;8.20;99.90
53264;DHT22;39153;52.680;6.172;2022-11-15T03:51:42;8.80;99.90
53264;DHT22;39153;52.680;6.172;2022-11-15T03:54:08;8.50;99.90
53264;DHT22;39153;52.680;6.172;2022-11-15T03:56:34;8.50;99.90
53264;DHT22;39153;52.680;6.172;2022-11-15T03:58:59;8.30;99.90
53264;DHT22;39153;52.680;6.172;2022-11-15T04:01:25;8.60;99.90
53264;DHT22;39153;52.680;6.172;2022-11-15T04:03:51;9.00;99.90
53264;DHT22;39153;52.680;6.172;2022-11-15T04:06:17;8.40;99.90
53264;DHT22;39153;52.680;6.172;2022-11-15T04:08:42;8.60;99.90
53264;DHT22;39153;52.680;6.172;2022-11-15T04:11:08;8.50;99.90
53264;DHT22;39153;52.680;6.172;2022-11-15T04:13:33;8.90;99.90
53264;DHT22;39153;52.680;6.172;2022-11-15T04:15:59;8.80;99.90
53264;DHT22;39153;52.680;6.172;2022-11-15T04:18:25;8.90;99.90
53264;DHT22;39153;52.680;6.172;2022-11-15T04:20:50;9.00;99.90
53264;DHT22;39153;52.680;6.172;2022-11-15T04:23:35;9.10;99.90
53264;DHT22;39153;52.680;6.172;2022-11-15T04:26:21;8.90;99.90
53264;DHT22;39153;52.680;6.172;2022-11-15T04:28:47;9.00;99.90
53264;DHT22;39153;52.680;6.172;2022-11-15T04:31:31;9.30;99.90
53264;DHT22;39153;52.680;6.172;2022-11-15T04:33:57;9.40;99.90
53264;DHT22;39153;52.680;6.172;2022-11-15T04:36:23;8.70;99.90
53264;DHT22;39153;52.680;6.172;2022-11-15T04:39:07;8.80;99.90
53264;DHT22;39153;52.680;6.172;2022-11-15T04:41:33;9.30;99.90
53264;DHT22;39153;52.680;6.172;2022-11-15T04:43:59;10.30;99.90
53264;DHT22;39153;52.680;6.172;2022-11-15T04:46:25;9.20;99.90
53264;DHT22;39153;52.680;6.172;2022-11-15T04:48:51;9.30;99.90
53264;DHT22;39153;52.680;6.172;2022-11-15T04:51:17;8.80;99.90
53264;DHT22;39153;52.680;6.172;2022-11-15T04:53:43;8.80;99.90
53264;DHT22;39153;52.680;6.172;2022-11-15T04:56:09;8.90;99.90
53264;DHT22;39153;52.680;6.172;2022-11-15T04:58:35;8.80;99.90
53264;DHT22;39153;52.680;6.172;2022-11-15T05:01:08;9.30;99.90
53264;DHT22;39153;52.680;6.172;2022-11-15T05:03:34;9.60;99.90
53264;DHT22;39153;52.680;6.172;2022-11-15T05:06:18;9.00;99.90
53264;DHT22;39153;52.680;6.172;2022-11-15T05:08:44;9.50;99.90
53264;DHT22;39153;52.680;6.172;2022-11-15T05:11:10;9.40;99.90
53264;DHT22;39153;52.680;6.172;2022-11-15T05:13:35;9.00;99.90
53264;DHT22;39153;52.680;6.172;2022-11-15T05:16:01;8.90;99.90
53264;DHT22;39153;52.680;6.172;2022-11-15T05:18:26;9.50;99.90
53264;DHT22;39153;52.680;6.172;2022-11-15T05:20:52;9.10;99.90
53264;DHT22;39153;52.680;6.172;2022-11-15T05:23:18;9.40;99.90
53264;DHT22;39153;52.680;6.172;2022-11-15T05:25:43;9.10;99.90
53264;DHT22;39153;52.680;6.172;2022-11-15T05:28:09;9.00;99.90
53264;DHT22;39153;52.680;6.172;2022-11-15T05:30:35;9.50;99.90
53264;DHT22;39153;52.680;6.172;2022-11-15T05:33:00;9.70;99.90
53264;DHT22;39153;52.680;6.172;2022-11-15T05:35:35;9.20;99.90
53264;DHT22;39153;52.680;6.172;2022-11-15T05:38:02;9.00;99.90
53264;DHT22;39153;52.680;6.172;2022-11-15T05:40:30;9.80;99.90
53264;DHT22;39153;52.680;6.172;2022-11-15T05:42:57;9.50;99.90
53264;DHT22;39153;52.680;6.172;2022-11-15T05:45:23;9.30;99.90
53264;DHT22;39153;52.680;6.172;2022-11-15T05:47:49;9.40;99.90
53264;DHT22;39153;52.680;6.172;2022-11-15T05:50:17;9.90;99.90
53264;DHT22;39153;52.680;6.172;2022-11-15T05:52:44;9.80;99.90
53264;DHT22;39153;52.680;6.172;2022-11-15T05:55:11;9.40;99.90
53264;DHT22;39153;52.680;6.172;2022-11-15T05:57:37;9.50;99.90
53264;DHT22;39153;52.680;6.172;2022-11-15T06:00:04;9.90;99.90
53264;DHT22;39153;52.680;6.172;2022-11-15T06:02:30;9.90;99.90
53264;DHT22;39153;52.680;6.172;2022-11-15T06:04:56;9.60;99.90
53264;DHT22;39153;52.680;6.172;2022-11-15T06:07:22;9.50;99.90
53264;DHT22;39153;52.680;6.172;2022-11-15T06:09:47;9.50;99.90
53264;DHT22;39153;52.680;6.172;2022-11-15T06:12:13;9.80;99.90
53264;DHT22;39153;52.680;6.172;2022-11-15T06:14:39;9.40;99.90
53264;DHT22;39153;52.680;6.172;2022-11-15T06:17:04;10.00;99.90
53264;DHT22;39153;52.680;6.172;2022-11-15T06:19:30;9.80;99.90
53264;DHT22;39153;52.680;6.172;2022-11-15T06:21:59;10.10;99.90
53264;DHT22;39153;52.680;6.172;2022-11-15T06:24:25;10.00;99.90
53264;DHT22;39153;52.680;6.172;2022-11-15T06:26:51;10.20;99.90
53264;DHT22;39153;52.680;6.172;2022-11-15T06:29:16;10.10;99.90
53264;DHT22;39153;52.680;6.172;2022-11-15T06:31:42;10.00;99.90
53264;DHT22;39153;52.680;6.172;2022-11-15T06:34:08;10.00;99.90
53264;DHT22;39153;52.680;6.172;2022-11-15T06:36:37;10.00;99.90
53264;DHT22;39153;52.680;6.172;2022-11-15T06:39:03;10.00;99.90
53264;DHT22;39153;52.680;6.172;2022-11-15T06:41:29;9.60;99.90
53264;DHT22;39153;52.680;6.172;2022-11-15T06:43:56;9.60;99.90
53264;DHT22;39153;52.680;6.172;2022-11-15T06:46:21;9.90;99.90
53264;DHT22;39153;52.680;6.172;2022-11-15T06:48:47;10.10;99.90
53264;DHT22;39153;52.680;6.172;2022-11-15T06:51:14;9.60;99.90
53264;DHT22;39153;52.680;6.172;2022-11-15T06:53:40;10.20;99.90
53264;DHT22;39153;52.680;6.172;2022-11-15T06:56:06;10.20;99.90
53264;DHT22;39153;52.680;6.172;2022-11-15T06:58:33;10.00;99.90
53264;DHT22;39153;52.680;6.172;2022-11-15T07:01:00;9.70;99.90
53264;DHT22;39153;52.680;6.172;2022-11-15T07:03:26;9.60;99.90
53264;DHT22;39153;52.680;6.172;2022-11-15T07:05:56;10.10;99.90
53264;DHT22;39153;52.680;6.172;2022-11-15T07:08:22;9.90;99.90
53264;DHT22;39153;52.680;6.172;2022-11-15T07:10:49;10.00;99.90
53264;DHT22;39153;52.680;6.172;2022-11-15T07:13:14;9.90;99.90
53264;DHT22;39153;52.680;6.172;2022-11-15T07:15:40;10.30;99.90
53264;DHT22;39153;52.680;6.172;2022-11-15T07:18:06;10.40;99.90
53264;DHT22;39153;52.680;6.172;2022-11-15T07:20:31;10.40;99.90
53264;DHT22;39153;52.680;6.172;2022-11-15T07:23:04;10.20;99.90
53264;DHT22;39153;52.680;6.172;2022-11-15T07:25:30;9.80;99.90
53264;DHT22;39153;52.680;6.172;2022-11-15T07:27:57;10.10;99.90
53264;DHT22;39153;52.680;6.172;2022-11-15T07:30:24;10.40;99.90
53264;DHT22;39153;52.680;6.172;2022-11-15T07:32:57;10.20;99.90
53264;DHT22;39153;52.680;6.172;2022-11-15T07:35:25;10.30;99.90
53264;DHT22;39153;52.680;6.172;2022-11-15T07:37:56;9.80;99.90
53264;DHT22;39153;52.680;6.172;2022-11-15T07:40:22;10.10;99.90
53264;DHT22;39153;52.680;6.172;2022-11-15T07:42:48;10.30;99.90
53264;DHT22;39153;52.680;6.172;2022-11-15T07:45:21;9.90;99.90
53264;DHT22;39153;52.680;6.172;2022-11-15T07:47:49;10.30;99.90
53264;DHT22;39153;52.680;6.172;2022-11-15T07:50:15;10.10;99.90
53264;DHT22;39153;52.680;6.172;2022-11-15T07:52:41;10.00;99.90
53264;DHT22;39153;52.680;6.172;2022-11-15T07:55:07;10.00;99.90
53264;DHT22;39153;52.680;6.172;2022-11-15T07:57:32;10.10;99.90
53264;DHT22;39153;52.680;6.172;2022-11-15T07:59:58;9.90;99.90
53264;DHT22;39153;52.680;6.172;2022-11-15T08:02:24;10.00;99.90
53264;DHT22;39153;52.680;6.172;2022-11-15T08:04:49;10.40;99.90
53264;DHT22;39153;52.680;6.172;2022-11-15T08:07:15;10.40;99.90
53264;DHT22;39153;52.680;6.172;2022-11-15T08:09:41;10.60;99.90
53264;DHT22;39153;52.680;6.172;2022-11-15T08:12:07;10.10;99.90
53264;DHT22;39153;52.680;6.172;2022-11-15T08:14:32;10.20;99.90
53264;DHT22;39153;52.680;6.172;2022-11-15T08:16:58;10.10;99.90
53264;DHT22;39153;52.680;6.172;2022-11-15T08:19:24;10.70;99.90
53264;DHT22;39153;52.680;6.172;2022-11-15T08:21:49;10.50;99.90
53264;DHT22;39153;52.680;6.172;2022-11-15T08:24:15;10.20;99.90
53264;DHT22;39153;52.680;6.172;2022-11-15T08:26:41;10.30;99.90
53264;DHT22;39153;52.680;6.172;2022-11-15T08:29:07;10.20;99.90
53264;DHT22;39153;52.680;6.172;2022-11-15T08:31:36;10.30;99.90
53264;DHT22;39153;52.680;6.172;2022-11-15T08:34:05;10.70;99.90
53264;DHT22;39153;52.680;6.172;2022-11-15T08:36:31;10.60;99.90
53264;DHT22;39153;52.680;6.172;2022-11-15T08:38:57;10.10;99.90
53264;DHT22;39153;52.680;6.172;2022-11-15T08:41:29;10.20;99.90
53264;DHT22;39153;52.680;6.172;2022-11-15T08:43:56;10.90;99.90
53264;DHT22;39153;52.680;6.172;2022-11-15T08:46:22;10.70;99.90
53264;DHT22;39153;52.680;6.172;2022-11-15T08:48:47;10.80;99.90
53264;DHT22;39153;52.680;6.172;2022-11-15T08:51:13;10.80;99.90
53264;DHT22;39153;52.680;6.172;2022-11-15T08:53:39;10.30;99.90
53264;DHT22;39153;52.680;6.172;2022-11-15T08:56:12;10.50;99.90
53264;DHT22;39153;52.680;6.172;2022-11-15T08:58:39;11.00;99.90
53264;DHT22;39153;52.680;6.172;2022-11-15T09:01:05;10.50;99.90
53264;DHT22;39153;52.680;6.172;2022-11-15T09:03:31;10.60;99.90
53264;DHT22;39153;52.680;6.172;2022-11-15T09:05:58;11.20;99.90
53264;DHT22;39153;52.680;6.172;2022-11-15T09:08:25;11.20;99.90
53264;DHT22;39153;52.680;6.172;2022-11-15T09:10:51;10.60;99.90
53264;DHT22;39153;52.680;6.172;2022-11-15T09:13:17;11.10;99.90
53264;DHT22;39153;52.680;6.172;2022-11-15T09:15:43;11.10;99.90
53264;DHT22;39153;52.680;6.172;2022-11-15T09:18:08;10.80;99.90
53264;DHT22;39153;52.680;6.172;2022-11-15T09:20:34;11.00;99.90
53264;DHT22;39153;52.680;6.172;2022-11-15T09:23:04;10.70;99.90
53264;DHT22;39153;52.680;6.172;2022-11-15T09:25:30;10.70;99.90
53264;DHT22;39153;52.680;6.172;2022-11-15T09:27:56;11.00;99.90
53264;DHT22;39153;52.680;6.172;2022-11-15T09:30:23;10.90;99.90
53264;DHT22;39153;52.680;6.172;2022-11-15T09:32:49;10.90;99.90
53264;DHT22;39153;52.680;6.172;2022-11-15T09:35:15;10.70;99.90
53264;DHT22;39153;52.680;6.172;2022-11-15T09:37:40;10.90;99.90
53264;DHT22;39153;52.680;6.172;2022-11-15T09:40:12;11.20;99.90
53264;DHT22;39153;52.680;6.172;2022-11-15T09:50:52;11.20;99.90
53264;DHT22;39153;52.680;6.172;2022-11-15T09:53:55;10.80;99.90
53264;DHT22;39153;52.680;6.172;2022-11-15T09:56:26;11.30;99.90
53264;DHT22;39153;52.680;6.172;2022-11-15T10:01:55;11.40;99.90
53264;DHT22;39153;52.680;6.172;2022-11-15T10:04:23;11.40;99.90
53264;DHT22;39153;52.680;6.172;2022-11-15T10:07:13;11.10;99.90
53264;DHT22;39153;52.680;6.172;2022-11-15T10:09:56;11.20;99.90
53264;DHT22;39153;52.680;6.172;2022-11-15T10:12:24;11.00;99.90
53264;DHT22;39153;52.680;6.172;2022-11-15T10:15:01;11.10;99.90
53264;DHT22;39153;52.680;6.172;2022-11-15T10:23:01;11.10;99.90
53264;DHT22;39153;52.680;6.172;2022-11-15T10:25:34;11.40;99.90
53264;DHT22;39153;52.680;6.172;2022-11-15T10:28:15;11.70;99.90
53264;DHT22;39153;52.680;6.172;2022-11-15T10:30:51;11.50;99.90
53264;DHT22;39153;52.680;6.172;2022-11-15T10:41:15;11.70;99.90
53264;DHT22;39153;52.680;6.172;2022-11-15T10:43:41;11.60;99.90
53264;DHT22;39153;52.680;6.172;2022-11-15T10:46:20;11.40;99.90
53264;DHT22;39153;52.680;6.172;2022-11-15T10:48:47;11.60;99.90
53264;DHT22;39153;52.680;6.172;2022-11-15T10:51:24;11.70;99.90
53264;DHT22;39153;52.680;6.172;2022-11-15T10:53:55;11.50;99.90
53264;DHT22;39153;52.680;6.172;2022-11-15T10:56:23;11.50;99.90
53264;DHT22;39153;52.680;6.172;2022-11-15T10:58:55;11.70;99.90
53264;DHT22;39153;52.680;6.172;2022-11-15T11:01:28;11.90;99.90
53264;DHT22;39153;52.680;6.172;2022-11-15T11:06:27;12.20;99.90
53264;DHT22;39153;52.680;6.172;2022-11-15T11:08:58;12.20;99.90
53264;DHT22;39153;52.680;6.172;2022-11-15T11:11:25;12.40;99.90
53264;DHT22;39153;52.680;6.172;2022-11-15T11:14:32;12.40;99.90
53264;DHT22;39153;52.680;6.172;2022-11-15T11:17:16;12.60;99.90
53264;DHT22;39153;52.680;6.172;2022-11-15T11:22:22;12.50;99.90
53264;DHT22;39153;52.680;6.172;2022-11-15T11:25:50;12.40;99.90
53264;DHT22;39153;52.680;6.172;2022-11-15T11:28:15;12.30;99.90
53264;DHT22;39153;52.680;6.172;2022-11-15T11:31:29;12.20;99.90
53264;DHT22;39153;52.680;6.172;2022-11-15T11:36:50;12.60;99.90
53264;DHT22;39153;52.680;6.172;2022-11-15T11:47:42;12.80;99.90
53264;DHT22;39153;52.680;6.172;2022-11-15T11:50:18;12.90;99.90
53264;DHT22;39153;52.680;6.172;2022-11-15T11:52:54;12.80;99.90
53264;DHT22;39153;52.680;6.172;2022-11-15T11:55:34;13.10;99.90
53264;DHT22;39153;52.680;6.172;2022-11-15T12:01:34;13.40;99.90
53264;DHT22;39153;52.680;6.172;2022-11-15T12:04:03;13.30;99.90
53264;DHT22;39153;52.680;6.172;2022-11-15T12:06:39;13.20;99.90
53264;DHT22;39153;52.680;6.172;2022-11-15T12:14:27;13.10;99.90
53264;DHT22;39153;52.680;6.172;2022-11-15T12:16:54;12.90;99.90
53264;DHT22;39153;52.680;6.172;2022-11-15T12:19:19;12.80;99.90
53264;DHT22;39153;52.680;6.172;2022-11-15T12:22:32;12.80;99.90
53264;DHT22;39153;52.680;6.172;2022-11-15T12:27:36;12.70;99.90
53264;DHT22;39153;52.680;6.172;2022-11-15T12:30:18;12.70;99.90
53264;DHT22;39153;52.680;6.172;2022-11-15T12:32:57;12.90;99.90
53264;DHT22;39153;52.680;6.172;2022-11-15T12:38:01;13.00;99.90
53264;DHT22;39153;52.680;6.172;2022-11-15T12:40:29;13.10;99.90
53264;DHT22;39153;52.680;6.172;2022-11-15T12:42:59;13.10;99.90
53264;DHT22;39153;52.680;6.172;2022-11-15T12:45:35;13.20;99.90
53264;DHT22;39153;52.680;6.172;2022-11-15T13:01:08;13.80;99.90
53264;DHT22;39153;52.680;6.172;2022-11-15T13:03:34;13.80;99.90
53264;DHT22;39153;52.680;6.172;2022-11-15T13:06:03;13.80;99.90
53264;DHT22;39153;52.680;6.172;2022-11-15T13:08:46;13.80;99.90
53264;DHT22;39153;52.680;6.172;2022-11-15T13:11:45;13.90;99.90
53264;DHT22;39153;52.680;6.172;2022-11-15T13:19:48;13.80;99.90
53264;DHT22;39153;52.680;6.172;2022-11-15T13:22:17;13.90;99.90
53264;DHT22;39153;52.680;6.172;2022-11-15T13:25:02;13.90;99.90
53264;DHT22;39153;52.680;6.172;2022-11-15T13:27:28;13.90;99.90
53264;DHT22;39153;52.680;6.172;2022-11-15T13:29:54;13.90;99.90
53264;DHT22;39153;52.680;6.172;2022-11-15T13:32:21;13.80;99.90
53264;DHT22;39153;52.680;6.172;2022-11-15T13:34:49;13.60;99.90
53264;DHT22;39153;52.680;6.172;2022-11-15T13:39:47;13.40;99.90
53264;DHT22;39153;52.680;6.172;2022-11-15T13:42:19;13.30;99.90
53264;DHT22;39153;52.680;6.172;2022-11-15T13:45:00;13.20;99.90
53264;DHT22;39153;52.680;6.172;2022-11-15T13:47:28;13.10;99.90
53264;DHT22;39153;52.680;6.172;2022-11-15T13:49:57;13.00;99.90
53264;DHT22;39153;52.680;6.172;2022-11-15T13:52:27;13.00;99.90
53264;DHT22;39153;52.680;6.172;2022-11-15T13:55:09;12.90;99.90
53264;DHT22;39153;52.680;6.172;2022-11-15T13:58:04;12.90;99.90
53264;DHT22;39153;52.680;6.172;2022-11-15T14:00:41;12.80;99.90
53264;DHT22;39153;52.680;6.172;2022-11-15T14:03:29;12.80;99.90
53264;DHT22;39153;52.680;6.172;2022-11-15T14:06:10;12.80;99.90
53264;DHT22;39153;52.680;6.172;2022-11-15T14:08:41;12.70;99.90
53264;DHT22;39153;52.680;6.172;2022-11-15T14:11:12;12.70;99.90
53264;DHT22;39153;52.680;6.172;2022-11-15T14:13:39;12.70;99.90
53264;DHT22;39153;52.680;6.172;2022-11-15T14:16:41;12.90;99.90
53264;DHT22;39153;52.680;6.172;2022-11-15T14:19:33;12.70;99.90
53264;DHT22;39153;52.680;6.172;2022-11-15T14:24:43;12.50;99.90
53264;DHT22;39153;52.680;6.172;2022-11-15T14:27:27;12.50;99.90
53264;DHT22;39153;52.680;6.172;2022-11-15T14:29:53;12.50;99.90
53264;DHT22;39153;52.680;6.172;2022-11-15T14:32:23;12.40;99.90
53264;DHT22;39153;52.680;6.172;2022-11-15T14:34:55;12.40;99.90
53264;DHT22;39153;52.680;6.172;2022-11-15T14:37:30;12.40;99.90
53264;DHT22;39153;52.680;6.172;2022-11-15T14:40:04;12.30;99.90
53264;DHT22;39153;52.680;6.172;2022-11-15T14:42:29;12.30;99.90
53264;DHT22;39153;52.680;6.172;2022-11-15T14:44:55;12.30;99.90
53264;DHT22;39153;52.680;6.172;2022-11-15T14:47:21;12.30;99.90
53264;DHT22;39153;52.680;6.172;2022-11-15T14:49:47;12.20;99.90
53264;DHT22;39153;52.680;6.172;2022-11-15T14:52:32;12.20;99.90
53264;DHT22;39153;52.680;6.172;2022-11-15T14:55:03;12.10;99.90
53264;DHT22;39153;52.680;6.172;2022-11-15T14:57:34;12.10;99.90
53264;DHT22;39153;52.680;6.172;2022-11-15T15:00:00;12.10;99.90
53264;DHT22;39153;52.680;6.172;2022-11-15T15:02:26;12.10;99.90
53264;DHT22;39153;52.680;6.172;2022-11-15T15:04:52;12.10;99.90
53264;DHT22;39153;52.680;6.172;2022-11-15T15:07:18;12.00;99.90
53264;DHT22;39153;52.680;6.172;2022-11-15T15:09:45;12.00;99.90
53264;DHT22;39153;52.680;6.172;2022-11-15T15:12:18;12.00;99.90
53264;DHT22;39153;52.680;6.172;2022-11-15T15:14:45;12.00;99.90
53264;DHT22;39153;52.680;6.172;2022-11-15T15:17:12;11.90;99.90
53264;DHT22;39153;52.680;6.172;2022-11-15T15:19:38;11.90;99.90
53264;DHT22;39153;52.680;6.172;2022-11-15T15:22:03;11.90;99.90
53264;DHT22;39153;52.680;6.172;2022-11-15T15:24:29;11.80;99.90
53264;DHT22;39153;52.680;6.172;2022-11-15T15:26:55;11.80;99.90
53264;DHT22;39153;52.680;6.172;2022-11-15T15:29:21;11.80;99.90
53264;DHT22;39153;52.680;6.172;2022-11-15T15:31:46;11.70;99.90
53264;DHT22;39153;52.680;6.172;2022-11-15T15:34:12;11.70;99.90
53264;DHT22;39153;52.680;6.172;2022-11-15T15:36:38;11.70;99.90
53264;DHT22;39153;52.680;6.172;2022-11-15T15:39:03;11.70;99.90
53264;DHT22;39153;52.680;6.172;2022-11-15T15:41:29;11.70;99.90
53264;DHT22;39153;52.680;6.172;2022-11-15T15:43:55;11.60;99.90
53264;DHT22;39153;52.680;6.172;2022-11-15T15:46:20;11.60;99.90
53264;DHT22;39153;52.680;6.172;2022-11-15T15:48:46;11.60;99.90
53264;DHT22;39153;52.680;6.172;2022-11-15T15:51:12;11.60;99.90
53264;DHT22;39153;52.680;6.172;2022-11-15T15:53:38;11.70;99.90
53264;DHT22;39153;52.680;6.172;2022-11-15T15:56:04;11.80;99.90
53264;DHT22;39153;52.680;6.172;2022-11-15T15:58:33;11.70;99.90
53264;DHT22;39153;52.680;6.172;2022-11-15T16:00:59;11.70;99.90
53264;DHT22;39153;52.680;6.172;2022-11-15T16:03:25;11.70;99.90
53264;DHT22;39153;52.680;6.172;2022-11-15T16:05:51;11.70;99.90
53264;DHT22;39153;52.680;6.172;2022-11-15T16:08:21;11.70;99.90
53264;DHT22;39153;52.680;6.172;2022-11-15T16:10:48;11.70;99.90
53264;DHT22;39153;52.680;6.172;2022-11-15T16:13:14;11.70;99.90
53264;DHT22;39153;52.680;6.172;2022-11-15T16:15:40;11.70;99.90
53264;DHT22;39153;52.680;6.172;2022-11-15T16:18:12;11.70;99.90
53264;DHT22;39153;52.680;6.172;2022-11-15T16:20:44;11.70;99.90
53264;DHT22;39153;52.680;6.172;2022-11-15T16:23:13;11.70;99.90
53264;DHT22;39153;52.680;6.172;2022-11-15T16:28:05;11.60;99.90
53264;DHT22;39153;52.680;6.172;2022-11-15T16:30:30;11.60;99.90
53264;DHT22;39153;52.680;6.172;2022-11-15T16:32:56;11.60;99.90
53264;DHT22;39153;52.680;6.172;2022-11-15T16:35:22;11.60;99.90
53264;DHT22;39153;52.680;6.172;2022-11-15T16:37:47;11.60;99.90
53264;DHT22;39153;52.680;6.172;2022-11-15T16:40:27;11.70;99.90
53264;DHT22;39153;52.680;6.172;2022-11-15T16:42:53;11.60;99.90
53264;DHT22;39153;52.680;6.172;2022-11-15T16:45:21;11.60;99.90
53264;DHT22;39153;52.680;6.172;2022-11-15T16:47:47;11.60;99.90
53264;DHT22;39153;52.680;6.172;2022-11-15T16:50:21;11.70;99.90
53264;DHT22;39153;52.680;6.172;2022-11-15T16:52:53;11.70;99.90
53264;DHT22;39153;52.680;6.172;2022-11-15T16:55:19;11.70;99.90
53264;DHT22;39153;52.680;6.172;2022-11-15T16:57:45;11.70;99.90
53264;DHT22;39153;52.680;6.172;2022-11-15T17:00:11;11.60;99.90
53264;DHT22;39153;52.680;6.172;2022-11-15T17:02:38;11.70;99.90
53264;DHT22;39153;52.680;6.172;2022-11-15T17:05:04;11.70;99.90
53264;DHT22;39153;52.680;6.172;2022-11-15T17:07:30;11.70;99.90
53264;DHT22;39153;52.680;6.172;2022-11-15T17:09:55;11.60;99.90
53264;DHT22;39153;52.680;6.172;2022-11-15T17:12:21;11.70;99.90
53264;DHT22;39153;52.680;6.172;2022-11-15T17:14:46;11.70;99.90
53264;DHT22;39153;52.680;6.172;2022-11-15T17:17:12;11.90;99.90
53264;DHT22;39153;52.680;6.172;2022-11-15T17:19:38;11.70;99.90
53264;DHT22;39153;52.680;6.172;2022-11-15T17:22:03;11.70;99.90
53264;DHT22;39153;52.680;6.172;2022-11-15T17:24:29;11.70;99.90
53264;DHT22;39153;52.680;6.172;2022-11-15T17:26:55;11.80;99.90
53264;DHT22;39153;52.680;6.172;2022-11-15T17:29:20;11.80;99.90
53264;DHT22;39153;52.680;6.172;2022-11-15T17:31:46;11.70;99.90
53264;DHT22;39153;52.680;6.172;2022-11-15T17:34:12;11.80;99.90
53264;DHT22;39153;52.680;6.172;2022-11-15T17:36:37;11.80;99.90
53264;DHT22;39153;52.680;6.172;2022-11-15T17:39:04;11.80;99.90